This is the latest recevied weather packets stored in our database for station/object F5ZYU-10. If no packets are shown the sender has not sent any weather packets the latest 10 day(s).
| Time | Temp. | Humidity | Pressure | Rain* | Wind** | Luminosity | Snow |
|---|---|---|---|---|---|---|---|
| 1787487654 | 27.22° C | 56% | 1026.4 hPa | - | - | - | - |
| 1787486754 | 26.67° C | 57% | 1026.5 hPa | - | - | - | - |
| 1787483153 | 25.56° C | 60% | 1026.7 hPa | - | - | - | - |
| 1787482253 | 25.56° C | 57% | 1026.7 hPa | - | - | - | - |
| 1787481353 | 25° C | 58% | 1026.8 hPa | - | - | - | - |
| 1787479862 | 24.44° C | 55% | 1026.8 hPa | - | - | - | - |
| 1787476852 | 23.33° C | 59% | 1026.6 hPa | - | - | - | - |
| 1787476043 | 22.78° C | 58% | 1026.6 hPa | - | - | - | - |
| 1787475353 | 22.78° C | 61% | 1026.4 hPa | - | - | - | - |
| 1787474177 | 22.22° C | 60% | 1026.3 hPa | - | - | - | - |
| 1787472825 | 20° C | 65% | 1026.2 hPa | - | - | - | - |
| 1787471925 | 20° C | 65% | 1026.3 hPa | - | - | - | - |
| 1787471025 | 19.44° C | 66% | 1026.4 hPa | - | - | - | - |
| 1787470125 | 19.44° C | 66% | 1026.3 hPa | - | - | - | - |
| 1787469225 | 19.44° C | 66% | 1026.3 hPa | - | - | - | - |
| 1787468325 | 18.89° C | 67% | 1026.2 hPa | - | - | - | - |
| 1787467425 | 18.89° C | 67% | 1026.2 hPa | - | - | - | - |
| 1787466527 | 18.33° C | 67% | 1026.1 hPa | - | - | - | - |
| 1787465627 | 18.33° C | 68% | 1026.1 hPa | - | - | - | - |
| 1787464726 | 18.33° C | 69% | 1026 hPa | - | - | - | - |
| 1787463826 | 18.33° C | 71% | 1025.9 hPa | - | - | - | - |
| 1787462924 | 18.33° C | 70% | 1025.7 hPa | - | - | - | - |
| 1787462024 | 18.33° C | 70% | 1025.7 hPa | - | - | - | - |
| 1787461132 | 18.33° C | 71% | 1025.6 hPa | - | - | - | - |
| 1787460223 | 18.33° C | 73% | 1025.4 hPa | - | - | - | - |
* Rain since midnight (hover to see other rain measurements)
** Current wind speed in m/s (hover to see current wind gust speed)